CPL6 weather

Parkland Airport
Edmonton, Alberta, Canada

Public forecast

Using degrees Celsius for public forecast. Weather courtesy of forecast.io.

METAR (pilot weather report)

Closest report is Edmonton / Villeneuve Airport, 11.7 nm (21.6 km) N. Retrieved 2019/07/21 04:00 UTC (29 minutes ago):

CZVL 210400Z AUTO 00000KT 9SM CLR 16/14 A3012 RMK SLP205 DENSITY ALT 2600FT

TAF (pilot weather forecast)

Forecast is more than 12 hours old.

Closest forecast is Edmonton / Villeneuve Airport, 11.7 nm (21.6 km) N. Retrieved 2019/07/20 00:00 UTC (1 day ago):

TAF CZVL 202338Z 2100/2112 34005KT P6SM SCT040 TEMPO 2100/2106 P6SM VCSH SCT020 BKN040 FM210600 18005KT P6SM SKC PROB30 2110/2112 3/4SM BR RMK FCST BASED ON AUTO OBS. NXT FCST BY 210600Z